Time;durP1;ratioP1;P1;durP2;ratioP2;P2;SDS_P1;SDS_P2;PMS_P1;PMS_P2;Temp;Humidity;BMP_temperature;BMP_pressure;BME280_temperature;BME280_humidity;BME280_pressure;Samples;Min_cycle;Max_cycle;Signal;HPM_P1;HPM_P2
2023/04/23 00:00:03;;;;;;;2.37;2.10;;;11.30;99.90;;;;;;5087886;28;20534;-53
2023/04/23 00:02:33;;;;;;;2.37;1.80;;;11.50;99.90;;;;;;5088281;28;20500;-53
2023/04/23 00:05:04;;;;;;;2.47;1.60;;;11.70;99.90;;;;;;5088326;28;20447;-53
2023/04/23 00:07:33;;;;;;;1.73;1.53;;;11.70;99.90;;;;;;5088091;28;20525;-55
2023/04/23 00:10:02;;;;;;;2.17;1.67;;;11.80;99.90;;;;;;5087786;28;21013;-53
2023/04/23 00:12:30;;;;;;;2.67;1.73;;;11.70;99.90;;;;;;5088307;28;20479;-53
2023/04/23 00:14:57;;;;;;;3.30;1.80;;;11.60;99.90;;;;;;5087658;28;20471;-53
2023/04/23 00:17:24;;;;;;;3.00;2.10;;;11.40;99.90;;;;;;5087797;28;20478;-55
2023/04/23 00:19:51;;;;;;;1.80;1.70;;;11.40;99.90;;;;;;5087445;28;20506;-53
2023/04/23 00:22:20;;;;;;;3.20;2.20;;;11.30;99.90;;;;;;5087382;28;20642;-54
2023/04/23 00:24:47;;;;;;;2.57;1.80;;;11.30;99.90;;;;;;5073780;28;20538;-53
2023/04/23 00:27:16;;;;;;;2.20;2.00;;;11.30;99.90;;;;;;5074051;28;20942;-54
2023/04/23 00:29:45;;;;;;;5.93;2.00;;;11.50;99.90;;;;;;5074254;28;20472;-53
2023/04/23 00:32:13;;;;;;;3.60;2.13;;;11.40;99.90;;;;;;5073277;28;20507;-53
2023/04/23 00:34:40;;;;;;;2.10;1.80;;;11.20;99.90;;;;;;5074173;28;20476;-54
2023/04/23 00:37:07;;;;;;;2.63;2.10;;;11.30;99.90;;;;;;5074194;28;20530;-53
2023/04/23 00:39:36;;;;;;;2.57;2.03;;;11.30;99.90;;;;;;5073940;28;20915;-53
2023/04/23 00:42:09;;;;;;;3.10;1.70;;;11.50;99.90;;;;;;5073914;28;20444;-52
2023/04/23 00:44:36;;;;;;;2.33;1.90;;;11.60;99.90;;;;;;5073956;28;20513;-53
2023/04/23 00:47:03;;;;;;;3.07;2.33;;;11.50;99.90;;;;;;5073897;28;20483;-52
2023/04/23 00:49:31;;;;;;;3.77;2.30;;;11.50;99.90;;;;;;5073973;28;20522;-52
2023/04/23 00:51:59;;;;;;;2.50;1.80;;;11.50;99.90;;;;;;5073982;28;20519;-53
2023/04/23 00:54:26;;;;;;;2.60;2.00;;;11.50;99.90;;;;;;5073557;28;20451;-53
2023/04/23 00:56:56;;;;;;;2.00;1.60;;;11.50;99.90;;;;;;5072627;28;20476;-53
2023/04/23 00:59:24;;;;;;;2.13;1.80;;;11.60;99.90;;;;;;5073733;28;20472;-54
2023/04/23 01:01:51;;;;;;;1.60;1.50;;;11.60;99.90;;;;;;5073095;28;20448;-52
2023/04/23 01:04:20;;;;;;;2.93;2.10;;;11.70;99.90;;;;;;5072840;28;20445;-53
2023/04/23 01:06:47;;;;;;;2.30;1.80;;;11.60;99.90;;;;;;5072794;28;20441;-53
2023/04/23 01:09:16;;;;;;;2.53;1.53;;;11.50;99.90;;;;;;5072971;28;20483;-54
2023/04/23 01:11:44;;;;;;;2.63;2.43;;;11.50;99.90;;;;;;5072117;28;20490;-53
2023/04/23 01:14:12;;;;;;;2.10;1.90;;;11.40;99.90;;;;;;5072856;28;20534;-52
2023/04/23 01:16:39;;;;;;;2.90;2.03;;;11.40;99.90;;;;;;5072792;28;20530;-53
2023/04/23 01:19:07;;;;;;;2.60;1.90;;;11.40;99.90;;;;;;5072227;28;20447;-52
2023/04/23 01:21:35;;;;;;;2.40;1.90;;;11.50;99.90;;;;;;5072193;28;20490;-52
2023/04/23 01:24:05;;;;;;;2.60;1.70;;;11.60;99.90;;;;;;5072550;28;20528;-52
2023/04/23 01:26:32;;;;;;;2.63;1.97;;;11.60;99.90;;;;;;5072284;28;20535;-52
2023/04/23 01:28:59;;;;;;;2.27;2.03;;;11.60;99.90;;;;;;5072522;28;20501;-52
2023/04/23 01:31:27;;;;;;;2.27;2.03;;;11.60;99.90;;;;;;5072603;28;20464;-52
2023/04/23 01:33:55;;;;;;;3.17;2.57;;;11.30;99.90;;;;;;5072271;28;20483;-52
2023/04/23 01:36:23;;;;;;;3.23;1.67;;;11.30;99.90;;;;;;5070891;28;20488;-52
2023/04/23 01:38:51;;;;;;;2.10;1.50;;;11.40;99.90;;;;;;5072777;28;20941;-52
2023/04/23 01:41:19;;;;;;;2.17;1.97;;;11.50;99.90;;;;;;5072535;28;20478;-53
2023/04/23 01:43:46;;;;;;;2.80;2.60;;;11.50;99.90;;;;;;5072535;28;20440;-52
2023/04/23 01:46:13;;;;;;;5.40;2.47;;;11.30;99.90;;;;;;5072106;28;20531;-52
2023/04/23 01:48:41;;;;;;;3.43;2.13;;;11.10;99.90;;;;;;5071867;28;20475;-54
2023/04/23 01:51:08;;;;;;;3.03;1.90;;;10.80;99.90;;;;;;5070600;28;20495;-54
2023/04/23 01:53:35;;;;;;;2.80;1.77;;;10.80;99.90;;;;;;5070587;28;20557;-52
2023/04/23 01:56:02;;;;;;;3.50;2.50;;;11.00;99.90;;;;;;5070430;28;20533;-52
2023/04/23 01:58:31;;;;;;;2.00;1.80;;;11.20;99.90;;;;;;5070486;28;20526;-53
2023/04/23 02:00:57;;;;;;;2.33;2.07;;;11.20;99.90;;;;;;5070541;28;20543;-52
2023/04/23 02:03:24;;;;;;;2.43;1.73;;;11.20;99.90;;;;;;5070173;28;20515;-52
2023/04/23 02:05:53;;;;;;;1.60;1.50;;;11.20;99.90;;;;;;5071306;28;20887;-52
2023/04/23 02:08:20;;;;;;;3.07;2.57;;;11.30;99.90;;;;;;5071897;28;20916;-52
2023/04/23 02:10:47;;;;;;;5.30;2.60;;;11.20;99.90;;;;;;5071100;28;20547;-51
2023/04/23 02:13:14;;;;;;;2.53;2.33;;;11.30;99.90;;;;;;5071374;28;20515;-51
2023/04/23 02:15:43;;;;;;;3.90;2.63;;;11.20;99.90;;;;;;5071513;28;20440;-51
2023/04/23 02:18:10;;;;;;;4.63;2.23;;;11.10;99.90;;;;;;5070674;28;20463;-51
2023/04/23 02:20:39;;;;;;;5.23;2.33;;;11.20;99.90;;;;;;5071701;28;20468;-52
2023/04/23 02:23:07;;;;;;;2.20;2.00;;;11.30;99.90;;;;;;5071402;28;20556;-52
2023/04/23 02:25:34;;;;;;;2.33;1.80;;;11.30;99.90;;;;;;5071597;28;20449;-51
2023/04/23 02:28:05;;;;;;;2.80;2.60;;;11.30;99.90;;;;;;5071116;28;20531;-52
2023/04/23 02:30:32;;;;;;;3.70;1.90;;;11.40;99.90;;;;;;5071252;28;20467;-52
2023/04/23 02:33:00;;;;;;;3.27;1.87;;;11.40;99.90;;;;;;5070672;28;20484;-52
2023/04/23 02:35:27;;;;;;;3.27;2.30;;;11.30;99.90;;;;;;5071356;28;20973;-52
2023/04/23 02:37:54;;;;;;;2.63;1.73;;;11.30;99.90;;;;;;5070618;28;20527;-52
2023/04/23 02:40:22;;;;;;;2.47;2.20;;;11.30;99.90;;;;;;5071086;28;20991;-53
2023/04/23 02:42:49;;;;;;;2.97;2.40;;;11.00;99.90;;;;;;5070710;28;20942;-54
2023/04/23 02:45:17;;;;;;;5.10;3.13;;;10.80;99.90;;;;;;5071130;28;20479;-51
2023/04/23 02:47:43;;;;;;;3.77;2.50;;;10.90;99.90;;;;;;5070963;28;20451;-52
2023/04/23 02:50:12;;;;;;;2.63;2.43;;;11.00;99.90;;;;;;5071082;28;20496;-52
2023/04/23 02:52:39;;;;;;;2.80;2.10;;;11.10;99.90;;;;;;5070919;28;20563;-52
2023/04/23 02:55:07;;;;;;;2.67;1.90;;;11.10;99.90;;;;;;5070666;28;20966;-52
2023/04/23 02:57:34;;;;;;;2.13;1.97;;;11.10;99.90;;;;;;5070932;28;20452;-52
2023/04/23 03:00:01;;;;;;;4.13;2.20;;;11.20;99.90;;;;;;5071088;28;20559;-52
2023/04/23 03:02:28;;;;;;;2.77;2.10;;;11.20;99.90;;;;;;5071256;28;20448;-51
2023/04/23 03:04:55;;;;;;;2.70;2.40;;;11.30;99.90;;;;;;5071342;28;20451;-51
2023/04/23 03:07:24;;;;;;;3.13;2.00;;;11.20;99.90;;;;;;5070756;28;20491;-52
2023/04/23 03:09:51;;;;;;;2.47;2.03;;;11.00;99.90;;;;;;5070565;28;20495;-52
2023/04/23 03:12:18;;;;;;;2.53;1.97;;;10.90;99.90;;;;;;5070727;28;20516;-51
2023/04/23 03:14:45;;;;;;;5.77;2.47;;;11.00;99.90;;;;;;5070756;28;20441;-52
2023/04/23 03:17:11;;;;;;;2.37;1.97;;;11.10;99.90;;;;;;5070988;28;21030;-51
2023/04/23 03:19:38;;;;;;;4.80;2.20;;;11.10;99.90;;;;;;5070377;28;21034;-52
2023/04/23 03:22:05;;;;;;;3.23;2.93;;;11.00;99.90;;;;;;5070504;28;20494;-52
2023/04/23 03:24:34;;;;;;;3.40;2.73;;;10.90;99.90;;;;;;5070913;28;20476;-52
2023/04/23 03:27:01;;;;;;;2.30;2.10;;;10.90;99.90;;;;;;5070630;28;20475;-53
2023/04/23 03:29:28;;;;;;;2.47;2.27;;;10.80;99.90;;;;;;5070552;28;20547;-52
2023/04/23 03:31:55;;;;;;;3.60;2.47;;;10.90;99.90;;;;;;5070645;28;21010;-52
2023/04/23 03:34:22;;;;;;;3.27;2.17;;;10.80;99.90;;;;;;5070046;28;20480;-52
2023/04/23 03:36:50;;;;;;;3.73;2.87;;;10.90;99.90;;;;;;5070407;28;20475;-51
2023/04/23 03:39:17;;;;;;;3.53;2.20;;;10.90;99.90;;;;;;5070882;28;20446;-52
2023/04/23 03:41:45;;;;;;;2.23;2.03;;;10.90;99.90;;;;;;5070457;28;21038;-53
2023/04/23 03:44:12;;;;;;;3.60;2.37;;;10.80;99.90;;;;;;5070477;28;20820;-52
2023/04/23 03:46:39;;;;;;;2.73;2.00;;;10.90;99.90;;;;;;5070737;28;20471;-52
2023/04/23 03:49:06;;;;;;;2.93;2.07;;;10.90;99.90;;;;;;5070677;28;20444;-51
2023/04/23 03:51:33;;;;;;;2.97;2.70;;;10.90;99.90;;;;;;5070791;28;20440;-52
2023/04/23 03:53:59;;;;;;;2.97;2.07;;;10.90;99.90;;;;;;5070505;28;20563;-52
2023/04/23 03:56:26;;;;;;;2.80;2.40;;;10.80;99.90;;;;;;5070484;28;20899;-52
2023/04/23 03:58:55;;;;;;;4.73;4.33;;;10.80;99.90;;;;;;5072499;28;20527;-52
2023/04/23 04:01:22;;;;;;;2.60;2.40;;;10.60;99.90;;;;;;5073961;28;20491;-52
2023/04/23 04:03:49;;;;;;;3.60;2.60;;;10.80;99.90;;;;;;5074216;28;20451;-52
2023/04/23 04:06:15;;;;;;;3.23;2.57;;;11.00;99.90;;;;;;5074132;28;20525;-52
2023/04/23 04:08:42;;;;;;;3.27;2.70;;;11.00;99.90;;;;;;5074066;28;20472;-52
2023/04/23 04:11:09;;;;;;;6.70;2.17;;;11.10;99.90;;;;;;5073822;28;20559;-52
2023/04/23 04:13:36;;;;;;;2.43;2.17;;;11.00;99.90;;;;;;5073679;28;20570;-52
2023/04/23 04:16:05;;;;;;;3.63;2.20;;;10.80;99.90;;;;;;5073745;28;20530;-51
2023/04/23 04:18:32;;;;;;;2.37;2.07;;;10.90;99.90;;;;;;5073448;28;20522;-52
2023/04/23 04:20:59;;;;;;;3.17;2.60;;;10.90;99.90;;;;;;5073941;28;20536;-52
2023/04/23 04:23:26;;;;;;;3.77;2.43;;;11.00;99.90;;;;;;5073212;28;20443;-52
2023/04/23 04:25:55;;;;;;;3.53;2.40;;;11.00;99.90;;;;;;5073636;28;20465;-48
2023/04/23 04:28:24;;;;;;;3.47;2.87;;;11.00;99.90;;;;;;5073745;28;20448;-52
2023/04/23 04:30:51;;;;;;;3.50;2.97;;;10.90;99.90;;;;;;5073935;28;20463;-52
2023/04/23 04:33:19;;;;;;;4.03;3.00;;;10.20;99.90;;;;;;5072866;28;20896;-52
2023/04/23 04:35:47;;;;;;;4.40;3.23;;;10.00;99.90;;;;;;5073705;28;20575;-51
2023/04/23 04:38:14;;;;;;;3.13;2.70;;;10.10;99.90;;;;;;5073031;28;20454;-52
2023/04/23 04:40:41;;;;;;;4.00;3.10;;;10.40;99.90;;;;;;5073429;28;20545;-51
2023/04/23 04:43:08;;;;;;;5.27;3.50;;;10.40;99.90;;;;;;5073878;28;20581;-54
2023/04/23 04:45:35;;;;;;;3.33;2.10;;;10.40;99.90;;;;;;5073492;28;20483;-52
2023/04/23 04:48:02;;;;;;;2.53;2.30;;;10.40;99.90;;;;;;5073339;28;20523;-52
2023/04/23 04:50:30;;;;;;;4.53;2.37;;;10.60;99.90;;;;;;5073418;28;20547;-53
2023/04/23 04:52:57;;;;;;;3.50;2.67;;;10.70;99.90;;;;;;5073151;28;21089;-52
2023/04/23 04:55:24;;;;;;;3.47;2.97;;;10.80;99.90;;;;;;5073308;28;21040;-51
2023/04/23 04:57:51;;;;;;;4.67;2.73;;;10.90;99.90;;;;;;5073341;28;20470;-53
2023/04/23 05:00:23;;;;;;;4.83;2.70;;;10.90;99.90;;;;;;5073216;28;20552;-51
2023/04/23 05:02:51;;;;;;;3.93;3.53;;;10.90;99.90;;;;;;5072897;28;20444;-52
2023/04/23 05:05:19;;;;;;;4.40;4.00;;;11.00;99.90;;;;;;5072933;28;20447;-53
2023/04/23 05:07:47;;;;;;;7.17;4.10;;;10.80;99.90;;;;;;5072747;28;20478;-54
2023/04/23 05:10:14;;;;;;;4.77;3.67;;;10.10;99.90;;;;;;5073008;28;20512;-52
2023/04/23 05:12:42;;;;;;;3.37;3.07;;;10.10;99.90;;;;;;5072834;28;21013;-52
2023/04/23 05:15:12;;;;;;;4.03;3.20;;;10.10;99.90;;;;;;5072842;28;20604;-52
2023/04/23 05:17:39;;;;;;;3.83;3.20;;;10.40;99.90;;;;;;5072050;28;20468;-52
2023/04/23 05:20:09;;;;;;;3.43;2.90;;;10.70;99.90;;;;;;5073317;28;20555;-52
2023/04/23 05:22:36;;;;;;;3.30;2.40;;;10.70;99.90;;;;;;5072081;28;20444;-51
2023/04/23 05:25:06;;;;;;;4.23;2.80;;;11.00;99.90;;;;;;5073450;28;20441;-51
2023/04/23 05:27:33;;;;;;;4.17;3.40;;;11.20;99.90;;;;;;5072608;28;20448;-52
2023/04/23 05:30:00;;;;;;;7.30;3.93;;;11.30;99.90;;;;;;5072322;28;20495;-52
2023/04/23 05:32:27;;;;;;;4.50;4.10;;;11.20;99.90;;;;;;5072109;28;20473;-52
2023/04/23 05:34:54;;;;;;;4.40;3.70;;;11.10;99.90;;;;;;5072356;28;21010;-51
2023/04/23 05:37:21;;;;;;;6.30;4.17;;;11.10;99.90;;;;;;5071755;28;20445;-52
2023/04/23 05:39:48;;;;;;;8.30;4.50;;;11.00;99.90;;;;;;5072353;28;20499;-51
2023/04/23 05:42:17;;;;;;;5.13;4.73;;;11.00;99.90;;;;;;5072250;28;20448;-52
2023/04/23 05:44:43;;;;;;;5.60;4.63;;;11.00;99.90;;;;;;5071982;28;20444;-52
2023/04/23 05:47:12;;;;;;;5.00;4.20;;;11.00;99.90;;;;;;5072385;28;20475;-51
2023/04/23 05:49:39;;;;;;;5.13;3.50;;;11.10;99.90;;;;;;5072283;28;20569;-52
2023/04/23 05:52:06;;;;;;;5.13;4.40;;;11.10;99.90;;;;;;5072135;28;20890;-52
2023/04/23 05:54:33;;;;;;;4.20;3.80;;;11.30;99.90;;;;;;5071718;28;21027;-52
2023/04/23 05:57:01;;;;;;;4.00;3.60;;;11.40;99.90;;;;;;5071749;28;20450;-52
2023/04/23 05:59:29;;;;;;;4.83;4.43;;;11.40;99.90;;;;;;5071767;28;20468;-52
2023/04/23 06:01:57;;;;;;;7.20;4.53;;;11.50;99.90;;;;;;5071824;28;20531;-52
2023/04/23 06:04:23;;;;;;;5.80;4.00;;;11.50;99.90;;;;;;5071938;28;20432;-52
2023/04/23 06:06:50;;;;;;;5.67;4.30;;;11.50;99.90;;;;;;5071557;28;20538;-52
2023/04/23 06:09:17;;;;;;;5.73;4.80;;;11.50;99.90;;;;;;5071845;28;20477;-52
2023/04/23 06:11:44;;;;;;;8.13;7.40;;;11.50;99.90;;;;;;5071351;28;20567;-51
2023/04/23 06:14:11;;;;;;;6.17;4.30;;;11.50;99.90;;;;;;5071693;28;20536;-51
2023/04/23 06:16:39;;;;;;;5.97;5.10;;;11.50;99.90;;;;;;5071730;28;20491;-52
2023/04/23 06:19:06;;;;;;;6.33;4.90;;;11.50;99.90;;;;;;5071243;28;20479;-51
2023/04/23 06:21:33;;;;;;;5.47;4.40;;;11.60;99.90;;;;;;5071010;28;20482;-52
2023/04/23 06:24:00;;;;;;;5.47;4.27;;;11.60;99.90;;;;;;5070782;28;20528;-52
2023/04/23 06:26:27;;;;;;;5.87;4.27;;;11.60;99.90;;;;;;5071117;28;20472;-52
2023/04/23 06:28:54;;;;;;;4.70;3.90;;;11.60;99.90;;;;;;5071331;28;20976;-52
2023/04/23 06:31:22;;;;;;;4.10;3.60;;;11.60;99.90;;;;;;5071418;28;20489;-51
2023/04/23 06:33:50;;;;;;;4.87;3.63;;;11.50;99.90;;;;;;5070688;28;20500;-51
2023/04/23 06:36:17;;;;;;;4.43;3.43;;;11.50;99.90;;;;;;5070651;28;20441;-51
2023/04/23 06:38:44;;;;;;;5.17;3.10;;;11.40;99.90;;;;;;5070910;28;20475;-52
2023/04/23 06:41:12;;;;;;;4.43;3.73;;;11.50;99.90;;;;;;5071361;28;20464;-51
2023/04/23 06:43:39;;;;;;;6.83;3.37;;;11.50;99.90;;;;;;5071251;28;20943;-51
2023/04/23 06:46:06;;;;;;;3.70;2.90;;;11.60;99.90;;;;;;5070851;28;20502;-51
2023/04/23 06:48:32;;;;;;;3.73;2.90;;;11.70;99.90;;;;;;5071046;28;20533;-51
2023/04/23 06:51:01;;;;;;;4.20;3.60;;;11.80;99.90;;;;;;5070984;28;20496;-51
2023/04/23 06:53:28;;;;;;;6.63;4.97;;;12.00;99.90;;;;;;5070932;28;20973;-51
2023/04/23 06:55:55;;;;;;;5.30;4.80;;;12.00;99.90;;;;;;5070971;28;20521;-52
2023/04/23 06:58:26;;;;;;;4.50;4.10;;;12.10;99.90;;;;;;5070294;28;20482;-51
2023/04/23 07:00:53;;;;;;;4.43;3.80;;;12.00;99.90;;;;;;5061731;28;20467;-53
2023/04/23 07:03:20;;;;;;;5.23;4.00;;;12.10;99.90;;;;;;5059381;28;20524;-52
2023/04/23 07:05:47;;;;;;;4.30;3.90;;;12.20;99.90;;;;;;5060486;28;20957;-53
2023/04/23 07:08:15;;;;;;;5.10;4.27;;;12.30;99.90;;;;;;5060933;28;20528;-51
2023/04/23 07:10:42;;;;;;;4.70;4.10;;;12.30;99.90;;;;;;5062787;28;20543;-51
2023/04/23 07:13:09;;;;;;;4.00;3.60;;;12.30;99.90;;;;;;5060686;28;20524;-51
2023/04/23 07:15:36;;;;;;;5.10;3.70;;;12.30;99.90;;;;;;5059286;28;20560;-53
2023/04/23 07:18:03;;;;;;;5.87;3.73;;;12.40;99.90;;;;;;5060439;28;20452;-51
2023/04/23 07:20:30;;;;;;;3.57;3.20;;;12.50;99.90;;;;;;5060768;28;20544;-50
2023/04/23 07:22:58;;;;;;;4.20;3.70;;;12.60;99.90;;;;;;5059370;28;20481;-52
2023/04/23 07:25:27;;;;;;;4.13;3.53;;;12.60;99.90;;;;;;5060618;28;20516;-53
2023/04/23 07:27:54;;;;;;;4.53;3.60;;;12.60;99.90;;;;;;5060174;28;20873;-51
2023/04/23 07:30:24;;;;;;;4.77;4.00;;;12.60;99.90;;;;;;5060975;28;20907;-51
2023/04/23 07:32:50;;;;;;;3.77;3.37;;;12.60;99.90;;;;;;5058095;28;20511;-51
2023/04/23 07:35:17;;;;;;;4.13;3.33;;;12.70;99.90;;;;;;5063145;28;20898;-52
2023/04/23 07:37:44;;;;;;;4.37;3.97;;;12.80;99.90;;;;;;5064473;28;20491;-52
2023/04/23 07:40:11;;;;;;;4.80;3.37;;;12.80;99.90;;;;;;5063999;28;20492;-51
2023/04/23 07:42:40;;;;;;;4.30;3.53;;;12.90;99.90;;;;;;5062859;28;21183;-51
2023/04/23 07:45:08;;;;;;;4.83;3.87;;;13.00;99.90;;;;;;5065517;28;20433;-53
2023/04/23 07:47:35;;;;;;;3.80;3.20;;;13.00;99.90;;;;;;5064485;28;20445;-53
2023/04/23 07:50:02;;;;;;;4.00;3.60;;;13.00;99.90;;;;;;5064404;28;20461;-51
2023/04/23 07:52:29;;;;;;;4.23;3.70;;;13.10;99.90;;;;;;5062855;28;20532;-51
2023/04/23 07:54:55;;;;;;;4.57;3.07;;;13.10;99.90;;;;;;5064457;28;20504;-51
2023/04/23 07:57:23;;;;;;;3.00;2.80;;;13.20;99.90;;;;;;5063497;28;20536;-52
2023/04/23 07:59:51;;;;;;;3.10;2.77;;;13.20;99.90;;;;;;5062721;28;20458;-53
2023/04/23 08:02:22;;;;;;;2.93;2.40;;;13.10;99.90;;;;;;5064717;28;20468;-53
2023/04/23 08:04:49;;;;;;;3.90;3.37;;;13.10;99.90;;;;;;5063888;28;20473;-51
2023/04/23 08:07:16;;;;;;;4.27;3.30;;;13.10;99.90;;;;;;5062408;28;20461;-51
2023/04/23 08:09:43;;;;;;;9.20;3.23;;;13.20;99.90;;;;;;5063170;28;20551;-51
2023/04/23 08:12:10;;;;;;;3.00;2.57;;;13.20;99.90;;;;;;5064443;28;20623;-52
2023/04/23 08:14:36;;;;;;;3.80;2.90;;;13.20;99.90;;;;;;5062517;28;20488;-51
2023/04/23 08:17:05;;;;;;;4.30;2.60;;;13.30;99.90;;;;;;5062987;28;20472;-52
2023/04/23 08:19:32;;;;;;;3.30;2.30;;;13.40;99.90;;;;;;5063705;28;20539;-52
2023/04/23 08:21:59;;;;;;;3.13;2.30;;;13.50;99.90;;;;;;5061792;28;20848;-51
2023/04/23 08:24:26;;;;;;;4.13;2.83;;;13.60;99.90;;;;;;5063461;28;20532;-51
2023/04/23 08:26:54;;;;;;;2.80;2.10;;;13.60;99.90;;;;;;5070057;28;20540;-53
2023/04/23 08:29:21;;;;;;;2.90;2.40;;;13.70;99.90;;;;;;5073615;28;20912;-51
2023/04/23 08:31:48;;;;;;;3.37;2.40;;;13.70;99.90;;;;;;5073758;28;20516;-54
2023/04/23 08:34:16;;;;;;;4.70;2.57;;;13.80;99.90;;;;;;5071905;28;20508;-51
2023/04/23 08:36:45;;;;;;;5.13;3.17;;;13.70;99.90;;;;;;5071199;28;20484;-51
2023/04/23 08:39:12;;;;;;;3.23;2.40;;;13.80;99.90;;;;;;5073802;28;20518;-53
2023/04/23 08:41:41;;;;;;;2.90;2.17;;;13.80;99.90;;;;;;5073251;28;20487;-52
2023/04/23 08:44:13;;;;;;;4.40;2.40;;;13.80;99.90;;;;;;5072980;28;20445;-51
2023/04/23 08:46:43;;;;;;;2.97;2.40;;;13.80;99.90;;;;;;5073376;28;20524;-53
2023/04/23 08:49:14;;;;;;;4.20;3.00;;;13.80;99.90;;;;;;5073403;28;20536;-53
2023/04/23 08:51:48;;;;;;;3.77;2.90;;;13.80;99.90;;;;;;5064403;28;20472;-53
2023/04/23 08:54:25;;;;;;;3.43;2.67;;;13.90;99.90;;;;;;5069375;28;20635;-52
2023/04/23 08:56:53;;;;;;;3.63;2.77;;;14.00;99.90;;;;;;5069196;28;20498;-52
2023/04/23 08:59:21;;;;;;;2.83;2.53;;;14.10;99.90;;;;;;5067475;28;20493;-51
2023/04/23 09:01:49;;;;;;;2.50;2.30;;;14.30;99.90;;;;;;5069680;28;20437;-55
2023/04/23 09:04:18;;;;;;;2.80;2.07;;;14.30;99.90;;;;;;5069339;28;20460;-52
2023/04/23 09:06:47;;;;;;;3.87;2.00;;;14.20;99.90;;;;;;5070041;28;20441;-52
2023/04/23 09:09:16;;;;;;;3.97;2.60;;;14.30;99.90;;;;;;5069445;28;20498;-52
2023/04/23 09:11:43;;;;;;;4.37;3.30;;;14.40;99.90;;;;;;5060713;28;20446;-53
2023/04/23 09:14:12;;;;;;;3.43;3.13;;;14.50;99.90;;;;;;5069704;28;20477;-52
2023/04/23 09:16:39;;;;;;;4.80;2.90;;;14.50;99.90;;;;;;5068564;28;20531;-53
2023/04/23 09:19:09;;;;;;;2.67;2.47;;;14.50;99.90;;;;;;5068370;28;20455;-52
2023/04/23 09:21:36;;;;;;;2.87;2.37;;;14.50;99.90;;;;;;5069230;28;20541;-53
2023/04/23 09:24:06;;;;;;;3.33;2.80;;;14.50;99.90;;;;;;5068960;28;20472;-52
2023/04/23 09:26:34;;;;;;;2.30;2.00;;;14.50;99.90;;;;;;5069540;28;20455;-53
2023/04/23 09:29:01;;;;;;;4.20;2.90;;;14.50;99.90;;;;;;5069378;28;20453;-53
2023/04/23 09:31:28;;;;;;;4.40;3.20;;;14.60;99.90;;;;;;5069522;28;20556;-53
2023/04/23 09:33:55;;;;;;;3.60;3.30;;;14.70;99.90;;;;;;5068783;28;20441;-55
2023/04/23 09:36:23;;;;;;;3.07;2.70;;;14.70;99.90;;;;;;5068948;28;20568;-52
2023/04/23 09:38:50;;;;;;;2.67;2.13;;;14.70;99.90;;;;;;5069464;28;20978;-52
2023/04/23 09:41:25;;;;;;;5.20;3.37;;;14.80;99.90;;;;;;5069437;28;20492;-52
2023/04/23 09:43:56;;;;;;;3.73;2.80;;;14.90;99.90;;;;;;5069437;28;20559;-52
2023/04/23 09:46:34;;;;;;;2.80;2.60;;;14.90;99.90;;;;;;5069412;28;20528;-53
2023/04/23 09:49:02;;;;;;;4.83;3.23;;;14.80;99.90;;;;;;5068854;28;20530;-52
2023/04/23 09:51:30;;;;;;;4.03;3.30;;;15.10;99.90;;;;;;5068848;28;20473;-53
2023/04/23 09:53:58;;;;;;;2.60;2.40;;;15.30;99.90;;;;;;5068636;28;20456;-53
2023/04/23 09:56:26;;;;;;;4.30;2.40;;;15.20;99.90;;;;;;5068085;28;20479;-52
2023/04/23 09:58:53;;;;;;;2.73;2.50;;;15.40;99.90;;;;;;5069237;28;20532;-52
2023/04/23 10:01:27;;;;;;;2.53;2.20;;;15.40;99.90;;;;;;5068831;28;20496;-53
2023/04/23 10:03:55;;;;;;;3.93;2.13;;;15.60;99.90;;;;;;5068717;28;20525;-52
2023/04/23 10:06:28;;;;;;;2.30;2.00;;;15.80;99.90;;;;;;5068479;28;20811;-53
2023/04/23 10:08:56;;;;;;;2.27;2.07;;;15.80;99.90;;;;;;5068837;28;20451;-53
2023/04/23 10:11:24;;;;;;;3.73;2.20;;;15.90;99.90;;;;;;5068690;28;21388;-52
2023/04/23 10:13:54;;;;;;;2.70;2.27;;;16.10;99.90;;;;;;5069305;28;20469;-52
2023/04/23 10:16:22;;;;;;;2.90;2.10;;;16.40;99.90;;;;;;5068115;28;20917;-53
2023/04/23 10:18:51;;;;;;;3.10;2.07;;;16.30;99.90;;;;;;5068034;28;20448;-51
2023/04/23 10:21:20;;;;;;;2.53;2.33;;;16.30;99.90;;;;;;5068767;28;20477;-52
2023/04/23 10:23:49;;;;;;;2.27;2.07;;;16.20;99.90;;;;;;5068950;28;20445;-53
2023/04/23 10:26:18;;;;;;;3.33;2.30;;;16.20;99.90;;;;;;5069777;28;20525;-53
2023/04/23 10:28:48;;;;;;;2.83;2.20;;;16.30;99.90;;;;;;5070169;28;20465;-52
2023/04/23 10:31:19;;;;;;;3.80;2.47;;;16.30;99.90;;;;;;5050998;28;20459;-53
2023/04/23 10:33:49;;;;;;;3.03;2.20;;;16.40;99.90;;;;;;5067295;28;20487;-52
2023/04/23 10:36:17;;;;;;;4.20;2.10;;;16.60;99.90;;;;;;5071454;28;20504;-54
2023/04/23 10:38:45;;;;;;;4.13;2.10;;;16.80;99.90;;;;;;5070183;28;20472;-53
2023/04/23 10:41:17;;;;;;;2.17;1.83;;;16.50;99.90;;;;;;5067194;28;21052;-54
2023/04/23 10:43:44;;;;;;;2.47;2.07;;;16.60;99.90;;;;;;5061377;28;21011;-53
2023/04/23 10:46:30;;;;;;;4.43;2.00;;;16.80;99.90;;;;;;5061735;28;20436;-53
2023/04/23 10:49:07;;;;;;;2.10;1.60;;;16.80;99.90;;;;;;5061810;28;20462;-53
2023/04/23 10:51:34;;;;;;;2.33;1.60;;;16.80;99.90;;;;;;5061917;28;20469;-54
2023/04/23 10:54:03;;;;;;;2.10;1.70;;;17.00;99.90;;;;;;5068596;28;20438;-53
2023/04/23 10:56:31;;;;;;;2.20;1.70;;;17.10;99.90;;;;;;5071138;28;20489;-53
2023/04/23 10:58:59;;;;;;;2.73;2.23;;;17.30;99.90;;;;;;5070741;28;20521;-55
2023/04/23 11:01:28;;;;;;;2.83;2.03;;;17.30;99.90;;;;;;5065275;28;20494;-53
2023/04/23 11:03:57;;;;;;;2.30;1.90;;;17.50;99.90;;;;;;5061591;28;20470;-53
2023/04/23 11:06:53;;;;;;;1.90;1.53;;;17.70;99.90;;;;;;5050619;28;20455;-53
2023/04/23 11:09:40;;;;;;;2.63;2.00;;;17.80;99.90;;;;;;5070433;28;20488;-54
2023/04/23 11:12:09;;;;;;;2.40;2.13;;;17.30;99.90;;;;;;5070804;28;20459;-54
2023/04/23 11:14:41;;;;;;;2.20;1.73;;;17.70;99.90;;;;;;5070767;28;20442;-53
2023/04/23 11:17:11;;;;;;;3.13;2.60;;;17.90;99.90;;;;;;5071025;28;20845;-53
2023/04/23 11:19:41;;;;;;;2.20;1.63;;;18.10;99.90;;;;;;5070371;28;20548;-53
2023/04/23 11:22:13;;;;;;;2.30;1.90;;;18.10;99.50;;;;;;5066057;28;20539;-55
2023/04/23 11:24:42;;;;;;;2.80;1.70;;;18.40;99.90;;;;;;5064052;28;20463;-53
2023/04/23 11:27:10;;;;;;;4.53;1.90;;;18.10;99.90;;;;;;5059351;28;21021;-54
2023/04/23 11:29:38;;;;;;;1.97;1.50;;;18.30;99.90;;;;;;5061770;28;20875;-53
2023/04/23 11:32:09;;;;;;;2.57;2.03;;;18.40;99.90;;;;;;5058820;28;20447;-54
2023/04/23 11:34:37;;;;;;;2.60;2.23;;;18.70;99.90;;;;;;5061303;28;20962;-53
2023/04/23 11:37:05;;;;;;;6.90;2.33;;;19.00;99.90;;;;;;5060038;28;20582;-54
2023/04/23 11:39:32;;;;;;;2.03;1.83;;;18.90;99.90;;;;;;5062880;28;20484;-54
2023/04/23 11:42:01;;;;;;;2.53;2.27;;;18.90;99.90;;;;;;5063670;28;20455;-54
2023/04/23 11:44:28;;;;;;;2.00;1.80;;;19.10;99.90;;;;;;5066683;28;20448;-57
2023/04/23 11:46:55;;;;;;;5.50;1.97;;;19.00;99.90;;;;;;5065808;28;21220;-53
2023/04/23 11:49:22;;;;;;;2.47;1.90;;;18.90;99.90;;;;;;5067165;28;20466;-53
2023/04/23 11:51:49;;;;;;;2.73;2.30;;;18.70;99.90;;;;;;5067183;28;20527;-54
2023/04/23 11:54:18;;;;;;;2.30;1.83;;;19.10;99.90;;;;;;5066956;28;20557;-53
2023/04/23 11:56:45;;;;;;;2.30;2.10;;;18.90;99.90;;;;;;5066566;28;20517;-53
2023/04/23 11:59:12;;;;;;;2.20;1.70;;;18.90;99.90;;;;;;5068046;28;20467;-53
2023/04/23 12:01:47;;;;;;;1.70;1.53;;;18.90;99.90;;;;;;5066408;28;20538;-53
2023/04/23 12:04:15;;;;;;;2.47;2.00;;;19.10;99.90;;;;;;5067302;28;20504;-54
2023/04/23 12:06:43;;;;;;;3.07;2.33;;;19.10;99.90;;;;;;5067181;28;20928;-52
2023/04/23 12:09:11;;;;;;;2.30;2.10;;;19.10;99.90;;;;;;5066637;28;20478;-54
2023/04/23 12:11:40;;;;;;;2.33;1.57;;;19.20;99.90;;;;;;5066793;28;20545;-53
2023/04/23 12:14:08;;;;;;;3.47;2.30;;;19.40;99.90;;;;;;5067322;28;20449;-52
2023/04/23 12:16:37;;;;;;;2.87;2.23;;;19.30;99.90;;;;;;5066928;28;20479;-53
2023/04/23 12:19:07;;;;;;;3.60;1.97;;;19.20;99.90;;;;;;5067273;28;20533;-53
2023/04/23 12:21:34;;;;;;;2.20;1.77;;;19.40;99.90;;;;;;5070895;28;20547;-52
2023/04/23 12:24:03;;;;;;;4.90;2.07;;;19.60;99.90;;;;;;5070369;28;20620;-53
2023/04/23 12:26:30;;;;;;;2.57;2.27;;;19.60;99.60;;;;;;5069878;28;20508;-53
2023/04/23 12:29:00;;;;;;;2.83;1.70;;;19.50;99.90;;;;;;5069946;28;20457;-53
2023/04/23 12:31:28;;;;;;;2.27;1.70;;;19.60;98.90;;;;;;5071514;28;20480;-52
2023/04/23 12:33:59;;;;;;;2.80;1.97;;;19.60;99.90;;;;;;5071152;28;20935;-53
2023/04/23 12:36:29;;;;;;;1.97;1.87;;;19.40;99.90;;;;;;5071550;28;20486;-52
2023/04/23 12:39:19;;;;;;;2.50;1.50;;;19.50;99.10;;;;;;5070994;28;20462;-53
2023/04/23 12:41:46;;;;;;;2.10;1.90;;;19.60;99.30;;;;;;5070931;28;20545;-53
2023/04/23 12:44:15;;;;;;;2.33;2.10;;;19.50;99.90;;;;;;5068100;28;20538;-53
2023/04/23 12:46:42;;;;;;;3.57;2.00;;;19.70;99.90;;;;;;5070951;28;20538;-55
2023/04/23 12:49:09;;;;;;;2.80;2.00;;;19.60;99.10;;;;;;5071030;28;20948;-53
2023/04/23 12:51:35;;;;;;;2.20;2.00;;;19.50;97.80;;;;;;5071423;28;20743;-52